Time;durP1;ratioP1;P1;durP2;ratioP2;P2;SDS_P1;SDS_P2;PMS_P1;PMS_P2;Temp;Humidity;BMP_temperature;BMP_pressure;BME280_temperature;BME280_humidity;BME280_pressure;Samples;Min_cycle;Max_cycle;Signal;HPM_P1;HPM_P2
2022/08/31 00:07:00;;;;;;;4.55;1.77;;;;;;;16.57;84.98;101337.28;5125724;57;1139014;-67
2022/08/31 00:12:06;;;;;;;7.83;2.03;;;;;;;16.57;84.98;101337.28;5078017;57;1139040;-69
2022/08/31 00:17:13;;;;;;;11.93;2.43;;;;;;;16.59;85.11;101330.83;5018805;58;1139109;-68
2022/08/31 00:22:18;;;;;;;10.40;2.03;;;;;;;16.54;85.08;101335.23;5053282;58;1141168;-67
2022/08/31 00:27:25;;;;;;;3.17;1.70;;;;;;;16.51;84.95;101331.50;5053339;58;1141131;-69
2022/08/31 00:32:31;;;;;;;6.33;1.93;;;;;;;16.44;85.33;101330.87;5015880;58;1139090;-67
2022/08/31 00:37:37;;;;;;;5.63;1.73;;;;;;;16.40;85.26;101334.30;5053291;58;1139046;-70
2022/08/31 00:42:43;;;;;;;8.17;2.03;;;;;;;16.37;85.45;101335.90;5081563;57;1139250;-72
2022/08/31 00:47:49;;;;;;;3.73;1.90;;;;;;;16.40;85.24;101333.45;5141958;57;1139243;-70
2022/08/31 00:52:58;;;;;;;4.70;1.80;;;;;;;16.38;85.45;101336.74;5141943;57;1139036;-67
2022/08/31 00:58:07;;;;;;;6.80;1.77;;;;;;;16.35;85.39;101335.19;5090745;57;1139008;-71
2022/08/31 01:03:13;;;;;;;8.03;2.50;;;;;;;16.31;85.15;101338.28;5118211;57;1139009;-72
2022/08/31 01:08:19;;;;;;;2.93;1.93;;;;;;;16.04;84.55;101334.89;5045647;58;1139064;-68
2022/08/31 01:13:25;;;;;;;5.70;1.90;;;;;;;15.80;84.80;101333.38;5187132;56;1137077;-70
2022/08/31 01:18:33;;;;;;;7.40;1.93;;;;;;;15.65;85.37;101341.84;5143742;56;1137183;-67
2022/08/31 01:23:43;;;;;;;5.60;2.10;;;;;;;15.71;86.36;101339.52;5125415;57;1136900;-68
2022/08/31 01:28:51;;;;;;;5.77;2.90;;;;;;;15.78;86.74;101341.14;5125434;57;1136906;-70
2022/08/31 01:33:58;;;;;;;6.27;2.77;;;;;;;15.81;87.06;101331.55;5125349;57;1136904;-68
2022/08/31 01:39:06;;;;;;;3.37;2.33;;;;;;;15.72;86.62;101341.20;5125480;57;1136976;-67
2022/08/31 01:44:16;;;;;;;8.20;2.30;;;;;;;15.71;87.29;101341.34;5159638;57;1136882;-65
2022/08/31 01:49:23;;;;;;;12.47;2.13;;;;;;;15.76;87.49;101342.61;5180802;57;1136922;-70
2022/08/31 01:54:29;;;;;;;6.07;1.93;;;;;;;15.72;86.53;101345.69;5180714;57;1139089;-71
2022/08/31 01:59:35;;;;;;;1.98;1.72;;;;;;;15.54;86.37;101345.89;5152086;57;1136880;-67
2022/08/31 02:04:55;;;;;;;2.47;1.80;;;;;;;15.26;86.24;101340.73;5163485;57;1136839;-69
2022/08/31 02:10:02;;;;;;;3.13;1.80;;;;;;;15.11;87.09;101346.86;5125954;57;1136923;-70
2022/08/31 02:15:09;;;;;;;4.20;2.07;;;;;;;14.94;87.14;101340.75;5116443;57;1135091;-72
2022/08/31 02:20:17;;;;;;;10.87;2.00;;;;;;;14.94;88.25;101336.27;5043270;58;1139201;-68
2022/08/31 02:25:23;;;;;;;8.33;2.20;;;;;;;14.87;88.14;101334.22;4997516;58;1140989;-68
2022/08/31 02:30:29;;;;;;;5.33;2.33;;;;;;;14.99;89.05;101343.38;5043294;58;1138953;-68
2022/08/31 02:35:36;;;;;;;12.95;2.92;;;;;;;14.88;88.34;101351.41;4996793;58;1138960;-71
2022/08/31 02:40:43;;;;;;;4.20;2.30;;;;;;;14.90;89.07;101344.63;5045698;57;1141129;-69
2022/08/31 02:45:49;;;;;;;2.87;1.73;;;;;;;14.88;88.52;101350.56;5208489;56;1138956;-70
2022/08/31 02:51:04;;;;;;;2.63;1.53;;;;;;;14.87;88.55;101348.87;5213601;56;1138979;-70
2022/08/31 02:56:13;;;;;;;5.33;2.27;;;;;;;14.72;87.73;101338.51;5198798;56;1138992;-68
2022/08/31 03:01:17;;;;;;;7.40;2.90;;;;;;;14.46;87.74;101328.30;5127391;57;1139265;-68
2022/08/31 03:06:24;;;;;;;3.40;1.90;;;;;;;14.28;88.18;101331.92;5139871;56;1139054;-69
2022/08/31 03:11:30;;;;;;;2.58;1.42;;;;;;;14.08;88.51;101322.86;5236904;56;1139007;-68
2022/08/31 03:16:41;;;;;;;3.30;1.40;;;;;;;13.85;88.80;101330.01;5210331;56;1139046;-70
2022/08/31 03:21:47;;;;;;;2.07;1.53;;;;;;;13.84;89.91;101332.30;5157889;57;1139022;-70
2022/08/31 03:26:56;;;;;;;6.40;2.30;;;;;;;13.88;89.87;101325.79;5158097;57;1139264;-71
2022/08/31 03:32:02;;;;;;;4.57;1.73;;;;;;;13.89;90.34;101329.30;5157906;57;1139112;-70
2022/08/31 03:37:08;;;;;;;1.80;1.70;;;;;;;13.95;90.39;101331.45;5157843;57;1138996;-67
2022/08/31 03:42:15;;;;;;;6.12;1.65;;;;;;;13.79;89.89;101342.44;5142616;57;1139019;-65
2022/08/31 03:47:21;;;;;;;6.07;1.40;;;;;;;13.67;89.94;101340.74;5158035;57;1139005;-70
2022/08/31 03:52:28;;;;;;;2.53;1.60;;;;;;;13.68;90.64;101347.27;5124114;57;1139253;-71
2022/08/31 03:57:41;;;;;;;7.40;1.97;;;;;;;13.70;90.58;101353.32;5116652;56;1139217;-67
2022/08/31 04:02:47;;;;;;;6.67;1.70;;;;;;;13.64;90.93;101352.94;5159086;56;1138885;-64
2022/08/31 04:08:07;;;;;;;1.90;1.20;;;;;;;13.62;91.37;101349.06;5193169;56;1139087;-68
2022/08/31 04:13:30;;;;;;;3.47;1.50;;;;;;;13.65;91.41;101347.50;5176018;56;1138965;-68
2022/08/31 04:18:50;;;;;;;4.87;1.80;;;;;;;13.62;90.93;101349.55;5087480;56;1138960;-71
2022/08/31 04:23:56;;;;;;;2.30;1.40;;;;;;;13.56;91.44;101354.02;5204031;56;1139080;-70
2022/08/31 04:29:02;;;;;;;4.57;1.80;;;;;;;13.44;91.90;101358.47;5213461;56;1136939;-68
2022/08/31 04:34:09;;;;;;;1.80;1.70;;;;;;;13.35;92.29;101354.69;5198587;56;1136754;-69
2022/08/31 04:39:15;;;;;;;8.90;2.13;;;;;;;13.32;92.55;101361.55;5195250;56;1136902;-70
2022/08/31 04:44:21;;;;;;;2.53;1.43;;;;;;;13.32;92.74;101362.03;5162510;56;1136930;-67
2022/08/31 04:49:28;;;;;;;4.87;2.43;;;;;;;13.37;93.15;101364.72;5127108;57;1136916;-69
2022/08/31 04:54:34;;;;;;;13.80;2.13;;;;;;;13.54;93.98;101364.77;5165355;56;1137087;-72
2022/08/31 04:59:40;;;;;;;9.23;2.33;;;;;;;13.54;93.87;101362.59;5210609;56;1139086;-66
2022/08/31 05:04:54;;;;;;;3.97;2.00;;;;;;;13.48;94.25;101364.38;5062667;57;1137343;-71
2022/08/31 05:10:00;;;;;;;3.47;2.20;;;;;;;13.52;94.54;101373.34;5178093;56;1136865;-70
2022/08/31 05:15:07;;;;;;;9.00;2.07;;;;;;;13.60;94.91;101372.73;5192868;56;1137331;-67
2022/08/31 05:20:13;;;;;;;8.33;2.33;;;;;;;13.64;95.08;101380.84;5172522;56;1136960;-67
2022/08/31 05:25:19;;;;;;;12.27;2.60;;;;;;;13.68;95.65;101377.00;5139118;56;1136269;-71
2022/08/31 05:30:25;;;;;;;7.83;2.83;;;;;;;13.72;96.56;101377.13;5120626;57;1139238;-68
2022/08/31 05:35:43;;;;;;;8.40;3.37;;;;;;;13.81;97.56;101375.56;5181316;56;1137208;-69
2022/08/31 05:41:01;;;;;;;8.30;3.00;;;;;;;13.99;98.48;101371.48;5214568;56;1134864;-66
2022/08/31 05:46:12;;;;;;;4.43;1.63;;;;;;;14.22;99.51;101367.83;5167852;56;1138984;-70
2022/08/31 05:51:19;;;;;;;5.90;2.10;;;;;;;14.45;100.00;101375.84;5173744;56;1139098;-71
2022/08/31 05:56:25;;;;;;;6.67;2.07;;;;;;;14.67;100.00;101376.64;5214232;56;1141043;-66
2022/08/31 06:01:37;;;;;;;4.43;2.00;;;;;;;14.87;100.00;101380.34;5180606;56;1141056;-69
2022/08/31 06:06:51;;;;;;;19.00;2.50;;;;;;;14.98;100.00;101384.30;5165295;56;1140963;-71
2022/08/31 06:11:58;;;;;;;14.77;1.80;;;;;;;15.01;100.00;101389.38;5213925;56;1143127;-65
2022/08/31 06:17:05;;;;;;;10.20;2.53;;;;;;;15.13;100.00;101397.69;5213456;56;1143204;-70
2022/08/31 06:22:12;;;;;;;5.93;1.67;;;;;;;15.36;100.00;101398.45;5170046;56;1143147;-67
2022/08/31 06:27:19;;;;;;;4.50;1.70;;;;;;;15.59;100.00;101395.69;5173497;56;1141106;-67
2022/08/31 06:32:25;;;;;;;6.20;1.70;;;;;;;15.74;100.00;101403.72;5127361;57;1141309;-67
2022/08/31 06:37:35;;;;;;;2.70;1.40;;;;;;;15.88;100.00;101410.57;5126141;57;1141094;-68
2022/08/31 06:42:47;;;;;;;3.67;1.23;;;;;;;16.09;100.00;101412.70;5087178;57;1141033;-68
2022/08/31 06:48:09;;;;;;;12.50;2.17;;;;;;;16.27;100.00;101412.45;5178247;56;1141040;-68
2022/08/31 06:53:16;;;;;;;5.93;2.73;;;;;;;16.38;100.00;101413.68;5203785;56;1143350;-73
2022/08/31 06:58:36;;;;;;;16.87;4.63;;;;;;;16.46;100.00;101417.03;5092295;56;1141027;-71
2022/08/31 07:03:46;;;;;;;4.43;2.20;;;;;;;16.56;100.00;101411.70;5168674;56;1143010;-67
2022/08/31 07:08:56;;;;;;;5.63;1.93;;;;;;;16.70;100.00;101421.55;5127413;57;1141198;-72
2022/08/31 07:14:04;;;;;;;9.23;2.23;;;;;;;16.86;100.00;101425.88;5126791;57;1141054;-73
2022/08/31 07:19:13;;;;;;;11.97;1.93;;;;;;;17.02;100.00;101422.67;5202019;56;1141052;-68
2022/08/31 07:24:24;;;;;;;9.33;2.63;;;;;;;17.19;100.00;101427.34;5129751;56;1143164;-65
2022/08/31 07:29:39;;;;;;;10.33;2.40;;;;;;;17.36;100.00;101423.13;5136562;56;1141148;-68
2022/08/31 07:34:43;;;;;;;5.93;1.53;;;;;;;17.69;100.00;101427.23;5127931;56;1141071;-70
2022/08/31 07:45:23;;;;;;;6.13;1.20;;;;;;;18.43;97.52;101418.41;5147306;56;1141151;-73
2022/08/31 07:50:30;;;;;;;5.83;1.10;;;;;;;18.65;96.77;101427.41;5155397;56;1136938;-67
2022/08/31 07:55:38;;;;;;;19.82;2.58;;;;;;;18.92;94.92;101424.73;5168612;56;1136992;-68
2022/08/31 08:00:47;;;;;;;7.30;1.47;;;;;;;19.28;93.45;101424.74;5174744;56;1138958;-69
2022/08/31 08:05:54;;;;;;;5.70;1.25;;;;;;;19.65;92.97;101425.45;5160432;56;1136987;-70
2022/08/31 08:11:01;;;;;;;3.92;1.50;;;;;;;20.07;92.87;101431.94;5173446;56;1136852;-68
2022/08/31 08:16:08;;;;;;;3.58;0.78;;;;;;;20.31;87.94;101427.56;5206201;56;1137124;-68
2022/08/31 08:21:17;;;;;;;9.50;1.27;;;;;;;20.59;86.19;101431.42;5184310;56;1136853;-68
2022/08/31 08:26:23;;;;;;;10.96;6.26;;;;;;;20.66;83.73;101435.12;5151367;56;1135542;-72
2022/08/31 08:31:50;;;;;;;8.63;2.50;;;;;;;20.78;84.41;101434.34;5164778;56;1141064;-67
2022/08/31 08:36:56;;;;;;;2.95;0.88;;;;;;;20.93;84.36;101432.72;5143409;56;1138938;-72
2022/08/31 08:42:04;;;;;;;5.42;1.10;;;;;;;20.94;82.53;101442.44;5204413;56;1139214;-68
2022/08/31 08:47:21;;;;;;;4.90;1.00;;;;;;;20.74;79.44;101431.64;5193603;56;1138813;-73
2022/08/31 08:52:33;;;;;;;11.05;1.00;;;;;;;20.68;79.87;101429.93;5193612;56;1139045;-69
2022/08/31 08:57:42;;;;;;;3.83;2.05;;;;;;;20.49;77.07;101440.93;5159770;56;1141033;-72
2022/08/31 09:03:15;;;;;;;11.05;1.82;;;;;;;20.67;78.44;101432.78;5162005;56;1138815;-66
2022/08/31 09:09:19;;;;;;;7.70;0.90;;;;;;;21.13;77.54;101427.36;4742899;61;1141247;-69
2022/08/31 09:14:52;;;;;;;8.10;0.95;;;;;;;21.13;77.54;101427.36;5160069;56;1138921;-67
2022/08/31 09:19:59;;;;;;;3.35;0.78;;;;;;;21.30;76.09;101429.10;5197275;56;1138932;-70
2022/08/31 09:25:05;;;;;;;12.35;1.87;;;;;;;21.21;72.48;101428.77;5172125;56;1137138;-73
2022/08/31 09:30:40;;;;;;;7.33;1.40;;;;;;;21.05;72.76;101432.73;5109716;56;1139013;-70
2022/08/31 09:35:46;;;;;;;5.12;0.60;;;;;;;20.84;73.84;101429.64;5184923;56;1136878;-71
2022/08/31 09:40:54;;;;;;;4.60;1.27;;;;;;;20.74;73.91;101431.64;5197942;56;1137193;-68
2022/08/31 09:46:10;;;;;;;8.20;0.80;;;;;;;20.61;73.93;101427.56;5158328;56;1136870;-70
2022/08/31 09:51:37;;;;;;;14.07;1.25;;;;;;;20.77;75.15;101425.44;5169429;56;1136867;-69
2022/08/31 09:56:56;;;;;;;16.35;2.10;;;;;;;21.08;74.94;101431.07;5159844;56;1136817;-68
2022/08/31 10:02:05;;;;;;;7.30;0.97;;;;;;;21.08;73.62;101438.30;5145435;56;1141055;-68
2022/08/31 10:07:15;;;;;;;7.50;1.40;;;;;;;20.94;73.09;101441.94;5155559;56;1138906;-66
2022/08/31 10:12:50;;;;;;;8.45;0.90;;;;;;;20.82;73.01;101428.46;5164268;56;1139048;-71
2022/08/31 10:18:10;;;;;;;6.95;0.90;;;;;;;20.96;74.68;101432.36;5162127;56;1138951;-69
2022/08/31 10:23:52;;;;;;;6.55;0.88;;;;;;;21.41;74.03;101427.42;5198234;56;1139017;-73
2022/08/31 10:28:54;;;;;;;4.03;0.65;;;;;;;21.48;70.90;101424.08;5179676;56;1138949;-73
2022/08/31 10:39:56;;;;;;;3.55;0.80;;;;;;;21.62;68.77;101409.43;5175237;56;1140985;-72
2022/08/31 10:45:13;;;;;;;1.77;1.07;;;;;;;21.91;65.66;101403.50;5176437;56;1139010;-69
2022/08/31 10:50:38;;;;;;;6.97;2.83;;;;;;;22.06;65.30;101396.43;5136000;56;1136885;-68
2022/08/31 10:55:58;;;;;;;2.27;1.00;;;;;;;22.17;62.62;101387.63;5185866;56;1137094;-68
2022/08/31 11:01:10;;;;;;;2.08;1.17;;;;;;;22.54;61.27;101383.79;5176276;56;1136844;-74
2022/08/31 11:06:33;;;;;;;13.48;1.35;;;;;;;22.79;60.46;101377.78;5156171;56;1136916;-68
2022/08/31 11:11:50;;;;;;;4.10;1.60;;;;;;;22.57;60.42;101388.00;5217925;56;1139212;-67
2022/08/31 11:17:17;;;;;;;11.55;3.55;;;;;;;22.37;59.17;101386.22;5220610;56;1134738;-71
2022/08/31 11:22:33;;;;;;;6.67;1.37;;;;;;;22.25;55.88;101387.12;5186713;56;1141068;-66
2022/08/31 11:28:06;;;;;;;;;;;;;;;22.18;58.00;101375.84;5214987;56;1139032;-68
2022/08/31 11:33:20;;;;;;;2.13;1.07;;;;;;;22.21;57.43;101368.77;5200842;56;976247;-65
2022/08/31 11:39:04;;;;;;;3.37;0.82;;;;;;;22.20;56.32;101364.39;5174219;56;1136823;-66
2022/08/31 11:44:32;;;;;;;9.68;1.20;;;;;;;22.56;55.05;101360.20;5062730;56;1138954;-67
2022/08/31 11:49:44;;;;;;;8.88;1.40;;;;;;;22.99;55.50;101368.22;5162710;56;1138479;-66
2022/08/31 11:54:55;;;;;;;10.60;1.00;;;;;;;23.41;53.43;101366.36;5179502;56;1138904;-70
2022/08/31 12:00:01;;;;;;;2.60;0.80;;;;;;;23.74;54.51;101353.42;5156961;56;1141020;-71
2022/08/31 12:05:10;;;;;;;10.63;1.98;;;;;;;24.08;53.50;101350.18;5184423;55;1138980;-69
2022/08/31 12:10:33;;;;;;;2.55;1.05;;;;;;;24.41;51.05;101341.19;5178849;56;1141053;-67
2022/08/31 12:15:59;;;;;;;12.90;1.07;;;;;;;24.34;50.61;101336.70;5186203;56;1136903;-66
2022/08/31 12:27:39;;;;;;;5.22;0.90;;;;;;;24.38;49.30;101330.73;5212857;56;1139018;-70
2022/08/31 12:32:55;;;;;;;1.62;0.80;;;;;;;24.50;50.17;101330.57;5190181;56;1138328;-70
2022/08/31 12:38:09;;;;;;;1.92;0.65;;;;;;;24.76;49.42;101330.53;5188199;56;1138907;-69
2022/08/31 12:43:28;;;;;;;2.60;0.88;;;;;;;24.86;47.54;101329.20;5161895;56;1138932;-68
2022/08/31 12:49:03;;;;;;;1.20;0.57;;;;;;;24.96;45.53;101317.24;5171118;56;1138824;-71
2022/08/31 12:55:04;;;;;;;0.75;0.60;;;;;;;25.07;45.88;101327.03;5141843;56;1139308;-70
2022/08/31 13:00:30;;;;;;;4.92;1.27;;;;;;;25.21;45.77;101319.34;5187538;56;1138929;-67
2022/08/31 13:05:38;;;;;;;3.87;0.72;;;;;;;25.23;45.01;101321.86;5126603;57;1138937;-69
2022/08/31 13:10:44;;;;;;;9.30;0.98;;;;;;;25.31;42.49;101320.38;5157953;56;1139007;-66
2022/08/31 13:15:50;;;;;;;21.65;1.60;;;;;;;25.30;42.44;101309.73;5182516;56;1136893;-67
2022/08/31 13:21:04;;;;;;;11.25;2.22;;;;;;;25.41;43.18;101305.97;5203595;56;1138986;-69
2022/08/31 13:26:23;;;;;;;13.75;1.10;;;;;;;25.48;39.24;101309.58;5212181;56;1138957;-70
2022/08/31 13:31:38;;;;;;;9.73;1.15;;;;;;;25.33;39.44;101308.00;5168579;56;1139027;-64
2022/08/31 13:36:52;;;;;;;6.53;0.72;;;;;;;25.38;41.79;101303.65;5210105;56;1136931;-66
2022/08/31 13:42:20;;;;;;;17.73;1.55;;;;;;;25.54;41.34;101299.80;5213343;56;1136916;-66
2022/08/31 13:47:33;;;;;;;9.78;1.35;;;;;;;25.64;41.18;101294.92;5181014;56;1136962;-66
2022/08/31 13:52:51;;;;;;;1.65;0.60;;;;;;;25.81;42.85;101292.73;5127670;57;1138974;-68
2022/08/31 13:58:04;;;;;;;3.95;1.20;;;;;;;25.94;41.47;101290.09;5177198;56;1138958;-70
2022/08/31 14:03:44;;;;;;;6.42;1.77;;;;;;;25.86;40.59;101288.37;5149357;56;1138969;-69
2022/08/31 14:09:04;;;;;;;4.42;1.00;;;;;;;25.49;41.04;101287.39;5128075;57;1138943;-73
2022/08/31 14:14:11;;;;;;;1.52;1.12;;;;;;;25.43;41.74;101283.59;5129234;56;1138941;-68
2022/08/31 14:19:39;;;;;;;7.33;1.00;;;;;;;25.53;41.26;101275.11;5208916;56;1138853;-71
2022/08/31 14:24:45;;;;;;;2.58;2.30;;;;;;;25.54;37.86;101269.48;5223755;56;1139093;-68
2022/08/31 14:29:53;;;;;;;8.88;1.52;;;;;;;25.54;39.61;101268.66;5224043;56;1139518;-71
2022/08/31 14:35:01;;;;;;;1.50;0.68;;;;;;;25.44;37.98;101270.38;5224189;56;1139295;-67
2022/08/31 14:40:08;;;;;;;6.60;0.98;;;;;;;25.33;39.25;101266.03;5223861;56;1139512;-70
2022/08/31 14:45:20;;;;;;;3.62;1.27;;;;;;;25.35;40.12;101274.28;5223727;56;1139111;-71
2022/08/31 14:50:26;;;;;;;14.85;1.50;;;;;;;25.20;40.39;101274.37;5223993;56;1139081;-70
2022/08/31 14:55:34;;;;;;;3.23;0.97;;;;;;;25.09;40.90;101278.11;5223812;56;1141175;-68
2022/08/31 15:00:47;;;;;;;5.92;0.95;;;;;;;25.05;41.66;101284.45;5188915;56;1138958;-72
2022/08/31 15:05:51;;;;;;;14.30;1.27;;;;;;;24.86;41.20;101286.42;5223903;56;1139217;-68
2022/08/31 15:10:56;;;;;;;1.87;0.72;;;;;;;24.70;41.24;101275.86;5223962;56;1141055;-67
2022/08/31 15:16:03;;;;;;;23.52;1.22;;;;;;;24.55;41.20;101277.27;5198104;56;1138996;-69
2022/08/31 15:21:11;;;;;;;7.90;1.92;;;;;;;24.33;41.76;101276.90;5095576;57;1141279;-68
2022/08/31 15:26:20;;;;;;;9.00;1.37;;;;;;;24.21;42.44;101279.23;5010082;58;1136721;-66
2022/08/31 15:31:27;;;;;;;6.05;1.05;;;;;;;24.10;42.40;101272.97;4983662;59;1136878;-65
2022/08/31 15:36:35;;;;;;;23.62;1.62;;;;;;;23.95;42.02;101277.55;5041730;57;1136998;-69
2022/08/31 15:41:41;;;;;;;5.10;1.47;;;;;;;23.90;42.91;101281.32;5004247;58;1139030;-67
2022/08/31 15:52:12;;;;;;;10.15;1.85;;;;;;;23.74;43.29;101285.05;5065488;57;1136968;-65
2022/08/31 15:57:17;;;;;;;5.28;1.45;;;;;;;23.54;45.70;101298.25;5065608;57;1138950;-71
2022/08/31 16:02:23;;;;;;;9.03;1.60;;;;;;;23.29;47.17;101291.39;5066728;57;1136793;-65
2022/08/31 16:07:29;;;;;;;9.18;1.22;;;;;;;23.07;47.53;101294.45;5065853;57;1136923;-64
2022/08/31 16:12:35;;;;;;;22.13;2.22;;;;;;;22.92;47.96;101293.05;5065270;57;1137007;-68
2022/08/31 16:17:42;;;;;;;18.40;1.72;;;;;;;22.76;47.94;101298.05;5014578;57;1139228;-70
2022/08/31 16:22:47;;;;;;;7.75;1.27;;;;;;;22.64;48.77;101296.77;4998953;58;1139283;-70
2022/08/31 16:27:54;;;;;;;3.45;0.90;;;;;;;22.50;49.17;101286.75;5042727;58;1137171;-68
2022/08/31 16:33:00;;;;;;;7.62;1.70;;;;;;;22.41;49.86;101285.97;5042821;58;1135181;-69
2022/08/31 16:38:06;;;;;;;31.57;2.62;;;;;;;22.32;50.34;101276.73;5042733;58;1134849;-72
2022/08/31 16:43:12;;;;;;;14.13;1.55;;;;;;;22.32;50.34;101276.73;5076706;57;1141063;-70
2022/08/31 16:53:46;;;;;;;19.05;1.62;;;;;;;22.29;50.59;101274.42;5087842;56;1138811;-68
2022/08/31 16:58:54;;;;;;;12.53;2.10;;;;;;;22.28;51.00;101274.93;5079313;57;1141112;-70
2022/08/31 17:04:05;;;;;;;6.53;1.00;;;;;;;22.34;51.41;101279.59;5099813;56;1141111;-67
2022/08/31 17:09:14;;;;;;;13.28;3.80;;;;;;;22.37;51.19;101281.10;5071518;57;1139196;-69
2022/08/31 17:14:27;;;;;;;4.55;1.32;;;;;;;22.27;51.21;101282.69;5060189;57;1140971;-71
2022/08/31 17:19:36;;;;;;;16.75;1.55;;;;;;;22.22;51.28;101283.70;5124481;57;1139039;-70
2022/08/31 17:24:47;;;;;;;20.57;1.47;;;;;;;22.13;51.07;101283.43;5124700;56;1141234;-69
2022/08/31 17:29:59;;;;;;;8.20;4.03;;;;;;;22.06;51.49;101280.58;5123323;57;1141146;-72
2022/08/31 17:35:05;;;;;;;27.23;3.93;;;;;;;22.00;51.74;101281.78;5075783;57;1139027;-69
2022/08/31 17:40:12;;;;;;;20.70;4.00;;;;;;;21.94;51.81;101284.65;5092658;57;1141047;-68
2022/08/31 17:45:20;;;;;;;33.35;4.92;;;;;;;21.78;52.12;101287.91;5150417;56;1141296;-71
2022/08/31 17:50:25;;;;;;;12.23;3.00;;;;;;;21.64;52.56;101290.80;5141977;57;1141317;-70
2022/08/31 17:55:31;;;;;;;5.25;3.22;;;;;;;21.56;52.74;101288.11;5128608;57;1141607;-68
2022/08/31 18:00:37;;;;;;;9.25;2.72;;;;;;;21.47;52.75;101299.42;5147387;56;1138881;-67
2022/08/31 18:05:47;;;;;;;13.65;1.65;;;;;;;21.43;52.89;101299.92;5195943;56;1139022;-70
2022/08/31 18:10:54;;;;;;;6.42;1.80;;;;;;;21.27;52.77;101304.31;5177610;56;1141069;-70
2022/08/31 18:16:01;;;;;;;5.20;1.85;;;;;;;21.11;53.01;101304.28;5157780;56;1138997;-70
2022/08/31 18:21:08;;;;;;;9.45;2.05;;;;;;;20.94;53.21;101307.97;5176463;56;1138942;-68
2022/08/31 18:26:29;;;;;;;10.50;1.85;;;;;;;20.94;53.21;101307.97;5138994;56;1139244;-68
2022/08/31 18:31:39;;;;;;;16.07;1.60;;;;;;;20.85;53.19;101322.43;5213241;56;1141189;-69
2022/08/31 18:36:45;;;;;;;9.75;2.47;;;;;;;20.67;53.58;101324.75;5193413;56;1141092;-68
2022/08/31 18:47:15;;;;;;;21.40;2.67;;;;;;;20.42;54.33;101324.36;5189796;56;1137054;-71
2022/08/31 18:52:21;;;;;;;26.37;2.67;;;;;;;20.33;54.65;101323.44;5214066;56;1139053;-69
2022/08/31 18:57:28;;;;;;;17.52;2.05;;;;;;;20.30;55.07;101326.98;5208409;56;1139012;-71
2022/08/31 19:02:37;;;;;;;10.65;1.50;;;;;;;20.29;55.40;101322.61;5216325;56;1139310;-65
2022/08/31 19:07:42;;;;;;;7.03;1.57;;;;;;;20.18;55.72;101333.62;5210294;56;1139263;-69
2022/08/31 19:12:48;;;;;;;8.58;2.20;;;;;;;20.02;56.18;101336.58;5167903;56;1136878;-71
2022/08/31 19:17:54;;;;;;;13.93;3.20;;;;;;;19.90;56.69;101349.09;5212044;56;1136933;-67
2022/08/31 19:23:00;;;;;;;9.45;3.72;;;;;;;19.73;57.17;101342.78;5153643;56;1139262;-70
2022/08/31 19:28:06;;;;;;;6.58;3.02;;;;;;;19.68;58.07;101361.73;5215315;56;1137489;-64
2022/08/31 19:33:12;;;;;;;7.25;2.12;;;;;;;19.55;58.27;101348.73;5209193;56;1137008;-70
2022/08/31 19:38:18;;;;;;;6.17;1.45;;;;;;;19.41;58.51;101350.08;5186818;56;1137765;-68
2022/08/31 19:43:23;;;;;;;10.82;1.70;;;;;;;19.33;59.00;101358.08;5135400;56;1137430;-72
2022/08/31 19:48:30;;;;;;;2.33;1.20;;;;;;;19.32;59.49;101359.91;5164902;56;1139504;-69
2022/08/31 19:53:37;;;;;;;3.47;2.10;;;;;;;19.36;59.65;101354.24;5213999;56;1137211;-70
2022/08/31 19:58:46;;;;;;;5.47;2.62;;;;;;;19.22;59.54;101355.14;5155611;56;1135234;-68
2022/08/31 20:03:54;;;;;;;25.23;10.98;;;;;;;19.20;60.21;101361.16;5175225;56;1139050;-73
2022/08/31 20:09:04;;;;;;;7.37;4.17;;;;;;;19.16;60.22;101356.25;5122554;56;1143553;-72
2022/08/31 20:14:09;;;;;;;10.30;3.17;;;;;;;18.95;60.33;101358.73;5171373;56;1139062;-72
2022/08/31 20:19:23;;;;;;;10.20;3.34;;;;;;;18.84;60.76;101363.48;5190278;56;1141170;-70
2022/08/31 20:24:29;;;;;;;15.83;4.60;;;;;;;18.82;61.29;101366.31;5192574;56;1141284;-72
2022/08/31 20:29:37;;;;;;;7.45;3.02;;;;;;;18.79;61.56;101368.47;5213791;56;1141216;-68
2022/08/31 20:34:43;;;;;;;7.35;1.90;;;;;;;18.69;61.73;101374.38;5215458;56;1139087;-71
2022/08/31 20:39:50;;;;;;;3.22;1.55;;;;;;;18.67;62.31;101375.02;5181499;56;1139319;-72
2022/08/31 20:44:56;;;;;;;7.47;1.72;;;;;;;18.61;62.40;101377.82;5155007;56;1139517;-69
2022/08/31 20:50:06;;;;;;;5.92;1.42;;;;;;;18.54;62.57;101382.05;5112390;56;1139416;-66
2022/08/31 20:55:13;;;;;;;2.87;1.75;;;;;;;18.37;62.31;101378.81;5218142;56;1139306;-73
2022/08/31 21:00:19;;;;;;;12.75;1.90;;;;;;;18.31;62.86;101383.44;5209615;56;1139513;-70
2022/08/31 21:05:25;;;;;;;10.45;2.15;;;;;;;18.32;63.00;101386.47;5137783;57;1141538;-70
2022/08/31 21:10:34;;;;;;;4.28;1.75;;;;;;;18.23;62.70;101384.16;5191866;56;1141506;-68
2022/08/31 21:15:46;;;;;;;3.80;1.40;;;;;;;18.04;63.03;101384.23;5174310;56;1139389;-69
2022/08/31 21:20:51;;;;;;;7.97;1.93;;;;;;;17.99;63.40;101383.84;5214799;56;1139345;-70
2022/08/31 21:25:58;;;;;;;4.65;2.30;;;;;;;18.00;63.72;101390.40;5215920;56;1139304;-71
2022/08/31 21:31:12;;;;;;;5.17;2.08;;;;;;;17.96;63.42;101396.18;5214790;56;1139108;-71
2022/08/31 21:36:24;;;;;;;3.70;1.75;;;;;;;17.82;63.53;101396.98;5218512;56;1139159;-69
2022/08/31 21:41:30;;;;;;;5.22;1.42;;;;;;;17.76;64.06;101389.53;5206470;56;1139133;-74
2022/08/31 21:46:37;;;;;;;5.67;1.40;;;;;;;17.81;64.61;101384.59;5159207;56;1139255;-65
2022/08/31 21:51:53;;;;;;;8.70;2.02;;;;;;;17.87;64.64;101389.34;5214177;56;1139104;-74
2022/08/31 21:57:02;;;;;;;3.65;2.00;;;;;;;17.80;64.16;101384.25;5211219;56;1138965;-68
2022/08/31 22:02:10;;;;;;;7.12;2.47;;;;;;;17.42;64.16;101385.11;5201538;56;1139051;-72
2022/08/31 22:07:16;;;;;;;8.33;4.28;;;;;;;17.17;65.20;101396.37;5169716;56;1139054;-69
2022/08/31 22:12:24;;;;;;;3.33;1.40;;;;;;;16.95;65.43;101395.33;5141800;56;1138987;-70
2022/08/31 22:17:30;;;;;;;6.60;1.77;;;;;;;16.68;65.95;101398.13;5205901;56;1139175;-72
2022/08/31 22:22:36;;;;;;;11.55;4.17;;;;;;;16.51;66.70;101397.42;5217502;56;1139307;-70
2022/08/31 22:27:41;;;;;;;5.73;3.33;;;;;;;16.59;67.65;101396.75;5193317;56;1138993;-65
2022/08/31 22:32:48;;;;;;;9.90;4.00;;;;;;;16.70;68.02;101395.33;5174180;56;1137006;-66
2022/08/31 22:37:54;;;;;;;37.73;16.52;;;;;;;16.77;68.43;101396.48;5162212;56;1137084;-72
2022/08/31 22:42:59;;;;;;;29.50;15.43;;;;;;;16.76;68.12;101396.97;5174441;56;1141255;-70
2022/08/31 22:48:05;;;;;;;22.17;10.97;;;;;;;16.72;68.35;101393.37;5155220;56;1141240;-71
2022/08/31 22:53:13;;;;;;;20.00;8.83;;;;;;;16.76;68.28;101396.13;5178615;56;1140881;-70
2022/08/31 22:58:19;;;;;;;10.90;5.77;;;;;;;16.75;68.35;101397.11;5174090;56;1139279;-65
2022/08/31 23:03:25;;;;;;;10.95;5.78;;;;;;;16.77;68.56;101391.98;5131588;57;1139328;-70
2022/08/31 23:08:31;;;;;;;11.43;4.63;;;;;;;16.76;68.28;101394.80;5133262;57;1139257;-68
2022/08/31 23:13:56;;;;;;;9.00;3.98;;;;;;;16.68;68.12;101399.47;5130828;57;1139298;-71
2022/08/31 23:19:10;;;;;;;10.30;4.10;;;;;;;16.65;68.30;101391.72;5217648;56;1136951;-71
2022/08/31 23:24:18;;;;;;;13.32;5.33;;;;;;;16.64;68.38;101390.55;5116949;56;1140042;-71
2022/08/31 23:29:25;;;;;;;11.53;5.20;;;;;;;16.57;68.38;101392.03;5124303;56;1137126;-69
2022/08/31 23:34:35;;;;;;;13.47;4.87;;;;;;;16.39;68.51;101378.48;5227357;56;1137130;-69
2022/08/31 23:39:51;;;;;;;11.57;4.43;;;;;;;16.39;68.51;101378.48;5170183;56;1141099;-70
2022/08/31 23:44:53;;;;;;;10.33;5.23;;;;;;;16.39;68.78;101391.83;5072761;58;1141047;-71
2022/08/31 23:50:01;;;;;;;12.23;5.63;;;;;;;16.26;68.71;101388.06;4984728;59;1141112;-69
2022/08/31 23:55:08;;;;;;;15.83;4.83;;;;;;;16.19;69.18;101382.92;4984858;59;1141097;-69
